sensor_id;sensor_type;location;lat;lon;timestamp;P1;durP1;ratioP1;P2;durP2;ratioP2
46589;SDS011;32313;48.722;9.362;2024-01-27T00:01:55;15.17;;;13.63;;
46589;SDS011;32313;48.722;9.362;2024-01-27T00:04:21;14.80;;;13.57;;
46589;SDS011;32313;48.722;9.362;2024-01-27T00:06:47;16.30;;;14.87;;
46589;SDS011;32313;48.722;9.362;2024-01-27T00:09:12;15.33;;;13.87;;
46589;SDS011;32313;48.722;9.362;2024-01-27T00:11:38;16.00;;;14.50;;
46589;SDS011;32313;48.722;9.362;2024-01-27T00:14:04;16.27;;;14.40;;
46589;SDS011;32313;48.722;9.362;2024-01-27T00:16:30;16.10;;;14.60;;
46589;SDS011;32313;48.722;9.362;2024-01-27T00:18:55;16.93;;;15.40;;
46589;SDS011;32313;48.722;9.362;2024-01-27T00:21:21;15.60;;;14.07;;
46589;SDS011;32313;48.722;9.362;2024-01-27T00:23:47;16.67;;;15.13;;
46589;SDS011;32313;48.722;9.362;2024-01-27T00:26:12;16.57;;;15.10;;
46589;SDS011;32313;48.722;9.362;2024-01-27T00:28:38;18.20;;;16.37;;
46589;SDS011;32313;48.722;9.362;2024-01-27T00:31:03;17.63;;;15.83;;
46589;SDS011;32313;48.722;9.362;2024-01-27T00:33:29;23.03;;;18.23;;
46589;SDS011;32313;48.722;9.362;2024-01-27T00:35:55;21.27;;;18.83;;
46589;SDS011;32313;48.722;9.362;2024-01-27T00:38:21;26.03;;;20.27;;
46589;SDS011;32313;48.722;9.362;2024-01-27T00:40:47;24.43;;;18.97;;
46589;SDS011;32313;48.722;9.362;2024-01-27T00:43:13;23.60;;;20.87;;
46589;SDS011;32313;48.722;9.362;2024-01-27T00:45:39;24.13;;;19.50;;
46589;SDS011;32313;48.722;9.362;2024-01-27T00:48:05;21.13;;;17.73;;
46589;SDS011;32313;48.722;9.362;2024-01-27T00:50:31;19.80;;;17.87;;
46589;SDS011;32313;48.722;9.362;2024-01-27T00:52:58;20.00;;;16.47;;
46589;SDS011;32313;48.722;9.362;2024-01-27T00:55:24;17.77;;;15.87;;
46589;SDS011;32313;48.722;9.362;2024-01-27T00:57:50;16.63;;;15.10;;
46589;SDS011;32313;48.722;9.362;2024-01-27T01:00:16;17.23;;;15.50;;
46589;SDS011;32313;48.722;9.362;2024-01-27T01:02:43;19.40;;;17.37;;
46589;SDS011;32313;48.722;9.362;2024-01-27T01:05:09;18.80;;;16.87;;
46589;SDS011;32313;48.722;9.362;2024-01-27T01:07:34;19.90;;;17.33;;
46589;SDS011;32313;48.722;9.362;2024-01-27T01:10:00;19.20;;;16.63;;
46589;SDS011;32313;48.722;9.362;2024-01-27T01:12:27;20.50;;;17.17;;
46589;SDS011;32313;48.722;9.362;2024-01-27T01:14:52;18.83;;;16.87;;
46589;SDS011;32313;48.722;9.362;2024-01-27T01:17:18;20.63;;;16.83;;
46589;SDS011;32313;48.722;9.362;2024-01-27T01:19:44;18.93;;;17.03;;
46589;SDS011;32313;48.722;9.362;2024-01-27T01:22:10;17.07;;;15.40;;
46589;SDS011;32313;48.722;9.362;2024-01-27T01:24:35;16.60;;;14.90;;
46589;SDS011;32313;48.722;9.362;2024-01-27T01:27:01;16.63;;;14.97;;
46589;SDS011;32313;48.722;9.362;2024-01-27T01:29:28;20.23;;;14.80;;
46589;SDS011;32313;48.722;9.362;2024-01-27T01:31:53;16.73;;;15.03;;
46589;SDS011;32313;48.722;9.362;2024-01-27T01:34:19;17.03;;;15.33;;
46589;SDS011;32313;48.722;9.362;2024-01-27T01:36:45;16.03;;;14.60;;
46589;SDS011;32313;48.722;9.362;2024-01-27T01:39:11;16.63;;;14.90;;
46589;SDS011;32313;48.722;9.362;2024-01-27T01:41:40;16.50;;;15.10;;
46589;SDS011;32313;48.722;9.362;2024-01-27T01:44:06;15.10;;;13.80;;
46589;SDS011;32313;48.722;9.362;2024-01-27T01:46:32;17.20;;;15.57;;
46589;SDS011;32313;48.722;9.362;2024-01-27T01:48:58;17.73;;;15.93;;
46589;SDS011;32313;48.722;9.362;2024-01-27T01:51:25;16.17;;;14.83;;
46589;SDS011;32313;48.722;9.362;2024-01-27T01:53:51;16.57;;;15.23;;
46589;SDS011;32313;48.722;9.362;2024-01-27T01:56:23;15.70;;;14.33;;
46589;SDS011;32313;48.722;9.362;2024-01-27T01:58:49;17.27;;;15.53;;
46589;SDS011;32313;48.722;9.362;2024-01-27T02:01:16;16.13;;;14.80;;
46589;SDS011;32313;48.722;9.362;2024-01-27T02:03:53;16.77;;;15.27;;
46589;SDS011;32313;48.722;9.362;2024-01-27T02:06:19;16.73;;;15.37;;
46589;SDS011;32313;48.722;9.362;2024-01-27T02:08:45;18.43;;;15.73;;
46589;SDS011;32313;48.722;9.362;2024-01-27T02:11:11;16.10;;;14.53;;
46589;SDS011;32313;48.722;9.362;2024-01-27T02:13:36;16.10;;;14.73;;
46589;SDS011;32313;48.722;9.362;2024-01-27T02:16:02;19.03;;;14.50;;
46589;SDS011;32313;48.722;9.362;2024-01-27T02:18:28;16.43;;;14.90;;
46589;SDS011;32313;48.722;9.362;2024-01-27T02:20:54;16.73;;;15.20;;
46589;SDS011;32313;48.722;9.362;2024-01-27T02:23:20;15.47;;;14.23;;
46589;SDS011;32313;48.722;9.362;2024-01-27T02:25:45;16.20;;;14.77;;
46589;SDS011;32313;48.722;9.362;2024-01-27T02:28:11;17.80;;;15.80;;
46589;SDS011;32313;48.722;9.362;2024-01-27T02:30:38;16.47;;;14.97;;
46589;SDS011;32313;48.722;9.362;2024-01-27T02:33:04;16.83;;;15.50;;
46589;SDS011;32313;48.722;9.362;2024-01-27T02:35:30;18.57;;;16.87;;
46589;SDS011;32313;48.722;9.362;2024-01-27T02:37:56;18.50;;;16.90;;
46589;SDS011;32313;48.722;9.362;2024-01-27T02:40:21;17.87;;;16.20;;
46589;SDS011;32313;48.722;9.362;2024-01-27T02:42:47;18.37;;;16.60;;
46589;SDS011;32313;48.722;9.362;2024-01-27T02:45:13;16.20;;;14.93;;
46589;SDS011;32313;48.722;9.362;2024-01-27T02:47:39;17.50;;;16.00;;
46589;SDS011;32313;48.722;9.362;2024-01-27T02:50:04;17.40;;;15.73;;
46589;SDS011;32313;48.722;9.362;2024-01-27T02:52:34;17.67;;;16.17;;
46589;SDS011;32313;48.722;9.362;2024-01-27T02:55:00;17.60;;;15.90;;
46589;SDS011;32313;48.722;9.362;2024-01-27T02:57:26;16.73;;;15.20;;
46589;SDS011;32313;48.722;9.362;2024-01-27T02:59:52;15.93;;;14.73;;
46589;SDS011;32313;48.722;9.362;2024-01-27T03:02:17;17.03;;;15.43;;
46589;SDS011;32313;48.722;9.362;2024-01-27T03:04:43;16.33;;;14.87;;
46589;SDS011;32313;48.722;9.362;2024-01-27T03:07:09;16.70;;;15.40;;
46589;SDS011;32313;48.722;9.362;2024-01-27T03:09:35;18.50;;;16.80;;
46589;SDS011;32313;48.722;9.362;2024-01-27T03:12:01;18.00;;;16.47;;
46589;SDS011;32313;48.722;9.362;2024-01-27T03:14:27;17.87;;;16.40;;
46589;SDS011;32313;48.722;9.362;2024-01-27T03:16:53;18.30;;;16.87;;
46589;SDS011;32313;48.722;9.362;2024-01-27T03:19:18;17.80;;;15.87;;
46589;SDS011;32313;48.722;9.362;2024-01-27T03:21:45;18.37;;;16.70;;
46589;SDS011;32313;48.722;9.362;2024-01-27T03:24:10;17.00;;;15.23;;
46589;SDS011;32313;48.722;9.362;2024-01-27T03:26:36;18.50;;;16.67;;
46589;SDS011;32313;48.722;9.362;2024-01-27T03:29:02;16.67;;;15.37;;
46589;SDS011;32313;48.722;9.362;2024-01-27T03:31:30;17.07;;;15.67;;
46589;SDS011;32313;48.722;9.362;2024-01-27T03:34:00;18.27;;;16.60;;
46589;SDS011;32313;48.722;9.362;2024-01-27T03:36:26;17.83;;;16.00;;
46589;SDS011;32313;48.722;9.362;2024-01-27T03:38:53;16.73;;;15.33;;
46589;SDS011;32313;48.722;9.362;2024-01-27T03:41:19;16.93;;;15.13;;
46589;SDS011;32313;48.722;9.362;2024-01-27T03:43:45;18.13;;;16.40;;
46589;SDS011;32313;48.722;9.362;2024-01-27T03:46:11;16.77;;;15.47;;
46589;SDS011;32313;48.722;9.362;2024-01-27T03:48:37;20.40;;;18.00;;
46589;SDS011;32313;48.722;9.362;2024-01-27T03:51:03;18.83;;;16.97;;
46589;SDS011;32313;48.722;9.362;2024-01-27T03:53:28;18.93;;;16.47;;
46589;SDS011;32313;48.722;9.362;2024-01-27T03:55:55;17.57;;;16.17;;
46589;SDS011;32313;48.722;9.362;2024-01-27T03:58:27;18.07;;;16.37;;
46589;SDS011;32313;48.722;9.362;2024-01-27T04:00:53;16.83;;;15.43;;
46589;SDS011;32313;48.722;9.362;2024-01-27T04:03:19;17.33;;;15.83;;
46589;SDS011;32313;48.722;9.362;2024-01-27T04:05:44;17.53;;;15.90;;
46589;SDS011;32313;48.722;9.362;2024-01-27T04:08:10;18.10;;;16.60;;
46589;SDS011;32313;48.722;9.362;2024-01-27T04:10:36;22.17;;;18.53;;
46589;SDS011;32313;48.722;9.362;2024-01-27T04:13:02;29.43;;;22.20;;
46589;SDS011;32313;48.722;9.362;2024-01-27T04:15:28;36.23;;;22.07;;
46589;SDS011;32313;48.722;9.362;2024-01-27T04:17:54;24.60;;;19.63;;
46589;SDS011;32313;48.722;9.362;2024-01-27T04:20:19;21.50;;;19.20;;
46589;SDS011;32313;48.722;9.362;2024-01-27T04:22:45;20.43;;;18.23;;
46589;SDS011;32313;48.722;9.362;2024-01-27T04:25:11;19.53;;;17.33;;
46589;SDS011;32313;48.722;9.362;2024-01-27T04:27:37;21.27;;;19.07;;
46589;SDS011;32313;48.722;9.362;2024-01-27T04:30:10;22.20;;;18.10;;
46589;SDS011;32313;48.722;9.362;2024-01-27T04:32:36;18.30;;;16.70;;
46589;SDS011;32313;48.722;9.362;2024-01-27T04:35:02;17.27;;;15.60;;
46589;SDS011;32313;48.722;9.362;2024-01-27T04:37:28;18.53;;;16.67;;
46589;SDS011;32313;48.722;9.362;2024-01-27T04:39:54;18.77;;;17.10;;
46589;SDS011;32313;48.722;9.362;2024-01-27T04:42:19;18.10;;;16.50;;
46589;SDS011;32313;48.722;9.362;2024-01-27T04:44:46;18.23;;;16.57;;
46589;SDS011;32313;48.722;9.362;2024-01-27T04:47:11;17.60;;;16.17;;
46589;SDS011;32313;48.722;9.362;2024-01-27T04:49:37;17.67;;;16.07;;
46589;SDS011;32313;48.722;9.362;2024-01-27T04:52:03;16.70;;;15.40;;
46589;SDS011;32313;48.722;9.362;2024-01-27T04:54:29;19.83;;;16.70;;
46589;SDS011;32313;48.722;9.362;2024-01-27T04:56:54;17.90;;;16.30;;
46589;SDS011;32313;48.722;9.362;2024-01-27T04:59:20;19.30;;;17.73;;
46589;SDS011;32313;48.722;9.362;2024-01-27T05:01:46;18.30;;;16.43;;
46589;SDS011;32313;48.722;9.362;2024-01-27T05:04:12;18.80;;;17.10;;
46589;SDS011;32313;48.722;9.362;2024-01-27T05:06:38;18.40;;;16.90;;
46589;SDS011;32313;48.722;9.362;2024-01-27T05:09:09;18.60;;;17.10;;
46589;SDS011;32313;48.722;9.362;2024-01-27T05:11:35;20.73;;;18.70;;
46589;SDS011;32313;48.722;9.362;2024-01-27T05:14:01;20.20;;;18.30;;
46589;SDS011;32313;48.722;9.362;2024-01-27T05:16:27;19.20;;;17.50;;
46589;SDS011;32313;48.722;9.362;2024-01-27T05:18:53;18.67;;;17.07;;
46589;SDS011;32313;48.722;9.362;2024-01-27T05:21:19;19.10;;;17.33;;
46589;SDS011;32313;48.722;9.362;2024-01-27T05:23:44;20.27;;;18.57;;
46589;SDS011;32313;48.722;9.362;2024-01-27T05:26:10;19.87;;;18.17;;
46589;SDS011;32313;48.722;9.362;2024-01-27T05:28:36;20.07;;;18.20;;
46589;SDS011;32313;48.722;9.362;2024-01-27T05:31:03;19.73;;;18.03;;
46589;SDS011;32313;48.722;9.362;2024-01-27T05:33:31;18.73;;;17.13;;
46589;SDS011;32313;48.722;9.362;2024-01-27T05:35:57;19.33;;;17.50;;
46589;SDS011;32313;48.722;9.362;2024-01-27T05:38:23;19.00;;;17.50;;
46589;SDS011;32313;48.722;9.362;2024-01-27T05:40:49;19.97;;;18.00;;
46589;SDS011;32313;48.722;9.362;2024-01-27T05:43:15;17.83;;;16.30;;
46589;SDS011;32313;48.722;9.362;2024-01-27T05:45:41;17.90;;;16.43;;
46589;SDS011;32313;48.722;9.362;2024-01-27T05:48:07;18.30;;;17.00;;
46589;SDS011;32313;48.722;9.362;2024-01-27T05:50:33;18.00;;;16.57;;
46589;SDS011;32313;48.722;9.362;2024-01-27T05:52:59;20.80;;;18.57;;
46589;SDS011;32313;48.722;9.362;2024-01-27T05:55:25;19.43;;;17.77;;
46589;SDS011;32313;48.722;9.362;2024-01-27T05:57:50;19.33;;;17.63;;
46589;SDS011;32313;48.722;9.362;2024-01-27T06:00:16;18.50;;;16.83;;
46589;SDS011;32313;48.722;9.362;2024-01-27T06:02:42;18.43;;;17.03;;
46589;SDS011;32313;48.722;9.362;2024-01-27T06:05:08;19.00;;;17.23;;
46589;SDS011;32313;48.722;9.362;2024-01-27T06:07:40;19.73;;;18.13;;
46589;SDS011;32313;48.722;9.362;2024-01-27T06:10:08;19.27;;;17.77;;
46589;SDS011;32313;48.722;9.362;2024-01-27T06:12:34;19.87;;;18.13;;
46589;SDS011;32313;48.722;9.362;2024-01-27T06:15:01;19.37;;;17.90;;
46589;SDS011;32313;48.722;9.362;2024-01-27T06:17:28;19.73;;;17.63;;
46589;SDS011;32313;48.722;9.362;2024-01-27T06:19:53;19.43;;;17.93;;
46589;SDS011;32313;48.722;9.362;2024-01-27T06:22:19;19.80;;;18.10;;
46589;SDS011;32313;48.722;9.362;2024-01-27T06:24:46;20.20;;;18.60;;
46589;SDS011;32313;48.722;9.362;2024-01-27T06:27:12;20.40;;;18.53;;
46589;SDS011;32313;48.722;9.362;2024-01-27T06:29:38;19.20;;;17.60;;
46589;SDS011;32313;48.722;9.362;2024-01-27T06:32:05;18.90;;;17.30;;
46589;SDS011;32313;48.722;9.362;2024-01-27T06:34:31;19.40;;;17.47;;
46589;SDS011;32313;48.722;9.362;2024-01-27T06:36:58;18.07;;;16.67;;
46589;SDS011;32313;48.722;9.362;2024-01-27T06:39:24;21.07;;;19.17;;
46589;SDS011;32313;48.722;9.362;2024-01-27T06:41:49;18.30;;;16.73;;
46589;SDS011;32313;48.722;9.362;2024-01-27T06:44:15;20.30;;;18.30;;
46589;SDS011;32313;48.722;9.362;2024-01-27T06:46:41;19.37;;;17.83;;
46589;SDS011;32313;48.722;9.362;2024-01-27T06:49:08;20.07;;;18.13;;
46589;SDS011;32313;48.722;9.362;2024-01-27T06:51:33;20.77;;;18.73;;
46589;SDS011;32313;48.722;9.362;2024-01-27T06:53:59;20.33;;;18.50;;
46589;SDS011;32313;48.722;9.362;2024-01-27T06:56:25;20.10;;;18.40;;
46589;SDS011;32313;48.722;9.362;2024-01-27T06:58:50;20.60;;;18.80;;
46589;SDS011;32313;48.722;9.362;2024-01-27T07:01:16;20.77;;;19.23;;
46589;SDS011;32313;48.722;9.362;2024-01-27T07:03:42;19.93;;;18.17;;
46589;SDS011;32313;48.722;9.362;2024-01-27T07:06:09;22.80;;;20.70;;
46589;SDS011;32313;48.722;9.362;2024-01-27T07:08:35;20.23;;;18.70;;
46589;SDS011;32313;48.722;9.362;2024-01-27T07:11:01;22.80;;;20.67;;
46589;SDS011;32313;48.722;9.362;2024-01-27T07:13:27;24.13;;;21.77;;
46589;SDS011;32313;48.722;9.362;2024-01-27T07:15:54;22.50;;;20.37;;
46589;SDS011;32313;48.722;9.362;2024-01-27T07:18:21;23.80;;;21.70;;
46589;SDS011;32313;48.722;9.362;2024-01-27T07:20:47;25.27;;;23.07;;
46589;SDS011;32313;48.722;9.362;2024-01-27T07:23:13;26.47;;;23.50;;
46589;SDS011;32313;48.722;9.362;2024-01-27T07:25:38;28.17;;;25.10;;
46589;SDS011;32313;48.722;9.362;2024-01-27T07:28:04;27.40;;;24.70;;
46589;SDS011;32313;48.722;9.362;2024-01-27T07:30:30;26.77;;;23.93;;
46589;SDS011;32313;48.722;9.362;2024-01-27T07:32:56;28.20;;;25.43;;
46589;SDS011;32313;48.722;9.362;2024-01-27T07:35:22;24.90;;;22.57;;
46589;SDS011;32313;48.722;9.362;2024-01-27T07:37:48;25.03;;;22.73;;
46589;SDS011;32313;48.722;9.362;2024-01-27T07:40:15;24.30;;;22.10;;
46589;SDS011;32313;48.722;9.362;2024-01-27T07:42:40;23.90;;;21.87;;
46589;SDS011;32313;48.722;9.362;2024-01-27T07:45:06;23.27;;;21.10;;
46589;SDS011;32313;48.722;9.362;2024-01-27T07:47:33;24.50;;;22.10;;
46589;SDS011;32313;48.722;9.362;2024-01-27T07:49:59;26.27;;;22.93;;
46589;SDS011;32313;48.722;9.362;2024-01-27T07:52:25;23.00;;;21.10;;
46589;SDS011;32313;48.722;9.362;2024-01-27T07:54:52;25.97;;;23.10;;
46589;SDS011;32313;48.722;9.362;2024-01-27T07:57:19;26.97;;;23.63;;
46589;SDS011;32313;48.722;9.362;2024-01-27T07:59:45;26.57;;;23.90;;
46589;SDS011;32313;48.722;9.362;2024-01-27T08:02:11;24.67;;;22.13;;
46589;SDS011;32313;48.722;9.362;2024-01-27T08:04:37;27.00;;;23.23;;
46589;SDS011;32313;48.722;9.362;2024-01-27T08:07:04;25.00;;;22.47;;
46589;SDS011;32313;48.722;9.362;2024-01-27T08:09:34;27.80;;;23.53;;
46589;SDS011;32313;48.722;9.362;2024-01-27T08:12:01;23.30;;;21.13;;
46589;SDS011;32313;48.722;9.362;2024-01-27T08:14:27;23.33;;;20.90;;
46589;SDS011;32313;48.722;9.362;2024-01-27T08:16:55;26.83;;;22.57;;
46589;SDS011;32313;48.722;9.362;2024-01-27T08:19:23;29.53;;;24.67;;
46589;SDS011;32313;48.722;9.362;2024-01-27T08:21:49;25.57;;;22.47;;
46589;SDS011;32313;48.722;9.362;2024-01-27T08:24:15;28.77;;;23.93;;
46589;SDS011;32313;48.722;9.362;2024-01-27T08:26:41;24.27;;;21.47;;
46589;SDS011;32313;48.722;9.362;2024-01-27T08:29:08;24.63;;;22.07;;
46589;SDS011;32313;48.722;9.362;2024-01-27T08:31:36;24.50;;;21.93;;
46589;SDS011;32313;48.722;9.362;2024-01-27T08:34:04;24.33;;;21.87;;
46589;SDS011;32313;48.722;9.362;2024-01-27T08:36:30;24.90;;;22.23;;
46589;SDS011;32313;48.722;9.362;2024-01-27T08:38:56;28.77;;;23.23;;
46589;SDS011;32313;48.722;9.362;2024-01-27T08:41:22;25.43;;;22.83;;
46589;SDS011;32313;48.722;9.362;2024-01-27T08:43:47;28.47;;;24.80;;
46589;SDS011;32313;48.722;9.362;2024-01-27T08:46:13;23.83;;;21.43;;
46589;SDS011;32313;48.722;9.362;2024-01-27T08:48:40;26.53;;;23.80;;
46589;SDS011;32313;48.722;9.362;2024-01-27T08:51:09;22.73;;;20.33;;
46589;SDS011;32313;48.722;9.362;2024-01-27T08:53:35;24.17;;;20.77;;
46589;SDS011;32313;48.722;9.362;2024-01-27T08:56:01;24.23;;;21.43;;
46589;SDS011;32313;48.722;9.362;2024-01-27T08:58:27;19.10;;;17.13;;
46589;SDS011;32313;48.722;9.362;2024-01-27T09:00:53;20.10;;;17.83;;
46589;SDS011;32313;48.722;9.362;2024-01-27T09:03:18;16.80;;;14.77;;
46589;SDS011;32313;48.722;9.362;2024-01-27T09:05:46;15.40;;;13.93;;
46589;SDS011;32313;48.722;9.362;2024-01-27T09:08:11;15.47;;;13.87;;
46589;SDS011;32313;48.722;9.362;2024-01-27T09:10:37;14.93;;;12.83;;
46589;SDS011;32313;48.722;9.362;2024-01-27T09:13:03;13.83;;;12.43;;
46589;SDS011;32313;48.722;9.362;2024-01-27T09:15:32;12.50;;;11.00;;
46589;SDS011;32313;48.722;9.362;2024-01-27T09:17:58;11.90;;;10.80;;
46589;SDS011;32313;48.722;9.362;2024-01-27T09:20:23;15.67;;;11.43;;
46589;SDS011;32313;48.722;9.362;2024-01-27T09:22:49;11.23;;;10.13;;
46589;SDS011;32313;48.722;9.362;2024-01-27T09:25:16;12.03;;;10.27;;
46589;SDS011;32313;48.722;9.362;2024-01-27T09:27:42;12.80;;;10.07;;
46589;SDS011;32313;48.722;9.362;2024-01-27T09:30:08;9.60;;;8.73;;
46589;SDS011;32313;48.722;9.362;2024-01-27T09:32:34;10.00;;;9.00;;
46589;SDS011;32313;48.722;9.362;2024-01-27T09:35:00;11.10;;;7.80;;
46589;SDS011;32313;48.722;9.362;2024-01-27T09:37:25;9.53;;;8.63;;
46589;SDS011;32313;48.722;9.362;2024-01-27T09:39:51;9.50;;;8.57;;
46589;SDS011;32313;48.722;9.362;2024-01-27T09:42:17;8.70;;;7.90;;
46589;SDS011;32313;48.722;9.362;2024-01-27T09:44:45;9.57;;;7.63;;
46589;SDS011;32313;48.722;9.362;2024-01-27T09:47:14;9.30;;;7.13;;
46589;SDS011;32313;48.722;9.362;2024-01-27T09:49:41;9.93;;;7.73;;
46589;SDS011;32313;48.722;9.362;2024-01-27T09:52:07;10.33;;;7.67;;
46589;SDS011;32313;48.722;9.362;2024-01-27T09:54:34;8.23;;;7.13;;
46589;SDS011;32313;48.722;9.362;2024-01-27T09:57:01;7.10;;;6.10;;
46589;SDS011;32313;48.722;9.362;2024-01-27T09:59:29;9.83;;;7.20;;
46589;SDS011;32313;48.722;9.362;2024-01-27T10:01:56;8.07;;;6.90;;
46589;SDS011;32313;48.722;9.362;2024-01-27T10:04:24;8.23;;;6.10;;
46589;SDS011;32313;48.722;9.362;2024-01-27T10:06:52;7.40;;;6.57;;
46589;SDS011;32313;48.722;9.362;2024-01-27T10:09:18;8.13;;;5.73;;
46589;SDS011;32313;48.722;9.362;2024-01-27T10:11:47;7.63;;;6.53;;
46589;SDS011;32313;48.722;9.362;2024-01-27T10:14:13;6.97;;;5.60;;
46589;SDS011;32313;48.722;9.362;2024-01-27T10:16:42;9.17;;;5.93;;
46589;SDS011;32313;48.722;9.362;2024-01-27T10:19:16;7.50;;;6.27;;
46589;SDS011;32313;48.722;9.362;2024-01-27T10:21:46;7.47;;;5.70;;
46589;SDS011;32313;48.722;9.362;2024-01-27T10:24:12;8.13;;;5.70;;
46589;SDS011;32313;48.722;9.362;2024-01-27T10:26:38;8.30;;;5.67;;
46589;SDS011;32313;48.722;9.362;2024-01-27T10:29:03;11.73;;;5.77;;
46589;SDS011;32313;48.722;9.362;2024-01-27T10:31:30;5.77;;;4.70;;
46589;SDS011;32313;48.722;9.362;2024-01-27T10:33:58;5.33;;;4.90;;
46589;SDS011;32313;48.722;9.362;2024-01-27T10:36:26;5.90;;;5.07;;
46589;SDS011;32313;48.722;9.362;2024-01-27T10:38:51;7.03;;;5.10;;
46589;SDS011;32313;48.722;9.362;2024-01-27T10:41:24;6.83;;;4.90;;
46589;SDS011;32313;48.722;9.362;2024-01-27T10:43:51;6.67;;;5.23;;
46589;SDS011;32313;48.722;9.362;2024-01-27T10:46:18;5.90;;;4.20;;
46589;SDS011;32313;48.722;9.362;2024-01-27T10:48:52;7.93;;;4.80;;
46589;SDS011;32313;48.722;9.362;2024-01-27T10:51:22;9.93;;;4.83;;
46589;SDS011;32313;48.722;9.362;2024-01-27T10:54:00;5.50;;;4.77;;
46589;SDS011;32313;48.722;9.362;2024-01-27T10:56:29;7.70;;;4.77;;
46589;SDS011;32313;48.722;9.362;2024-01-27T10:58:57;8.87;;;5.17;;
46589;SDS011;32313;48.722;9.362;2024-01-27T11:01:24;8.03;;;4.60;;
46589;SDS011;32313;48.722;9.362;2024-01-27T11:03:52;7.40;;;4.90;;
46589;SDS011;32313;48.722;9.362;2024-01-27T11:06:19;6.30;;;4.70;;
46589;SDS011;32313;48.722;9.362;2024-01-27T11:08:48;9.03;;;4.50;;
46589;SDS011;32313;48.722;9.362;2024-01-27T11:11:15;4.80;;;4.10;;
46589;SDS011;32313;48.722;9.362;2024-01-27T11:13:43;7.80;;;5.13;;
46589;SDS011;32313;48.722;9.362;2024-01-27T11:16:19;7.33;;;4.73;;
46589;SDS011;32313;48.722;9.362;2024-01-27T11:18:45;8.40;;;4.93;;
46589;SDS011;32313;48.722;9.362;2024-01-27T11:21:16;8.67;;;4.33;;
46589;SDS011;32313;48.722;9.362;2024-01-27T11:23:42;7.67;;;5.27;;
46589;SDS011;32313;48.722;9.362;2024-01-27T11:26:10;8.03;;;5.27;;
46589;SDS011;32313;48.722;9.362;2024-01-27T11:28:39;7.30;;;5.53;;
46589;SDS011;32313;48.722;9.362;2024-01-27T11:31:06;8.03;;;5.77;;
46589;SDS011;32313;48.722;9.362;2024-01-27T11:33:32;9.67;;;5.80;;
46589;SDS011;32313;48.722;9.362;2024-01-27T11:36:01;9.03;;;6.00;;
46589;SDS011;32313;48.722;9.362;2024-01-27T11:38:31;9.40;;;6.27;;
46589;SDS011;32313;48.722;9.362;2024-01-27T11:40:59;11.47;;;5.90;;
46589;SDS011;32313;48.722;9.362;2024-01-27T11:43:25;8.37;;;5.03;;
46589;SDS011;32313;48.722;9.362;2024-01-27T11:45:57;9.83;;;5.00;;
46589;SDS011;32313;48.722;9.362;2024-01-27T11:48:23;8.57;;;4.57;;
46589;SDS011;32313;48.722;9.362;2024-01-27T11:50:59;10.93;;;5.20;;
46589;SDS011;32313;48.722;9.362;2024-01-27T11:53:28;7.53;;;4.97;;
46589;SDS011;32313;48.722;9.362;2024-01-27T11:55:54;9.70;;;4.40;;
46589;SDS011;32313;48.722;9.362;2024-01-27T11:58:21;9.07;;;4.40;;
46589;SDS011;32313;48.722;9.362;2024-01-27T12:00:47;8.10;;;4.53;;
46589;SDS011;32313;48.722;9.362;2024-01-27T12:03:13;7.23;;;4.20;;
46589;SDS011;32313;48.722;9.362;2024-01-27T12:05:39;9.27;;;4.40;;
46589;SDS011;32313;48.722;9.362;2024-01-27T12:08:07;7.93;;;3.97;;
46589;SDS011;32313;48.722;9.362;2024-01-27T12:10:33;6.43;;;4.13;;
46589;SDS011;32313;48.722;9.362;2024-01-27T12:12:59;12.27;;;4.67;;
46589;SDS011;32313;48.722;9.362;2024-01-27T12:15:25;8.43;;;4.70;;
46589;SDS011;32313;48.722;9.362;2024-01-27T12:17:51;9.97;;;4.97;;
46589;SDS011;32313;48.722;9.362;2024-01-27T12:20:18;6.23;;;4.40;;
46589;SDS011;32313;48.722;9.362;2024-01-27T12:22:44;6.57;;;4.17;;
46589;SDS011;32313;48.722;9.362;2024-01-27T12:25:15;11.97;;;5.23;;
46589;SDS011;32313;48.722;9.362;2024-01-27T12:27:41;9.50;;;5.07;;
46589;SDS011;32313;48.722;9.362;2024-01-27T12:30:07;10.90;;;4.80;;
46589;SDS011;32313;48.722;9.362;2024-01-27T12:32:33;8.77;;;4.20;;
46589;SDS011;32313;48.722;9.362;2024-01-27T12:35:04;7.30;;;4.20;;
46589;SDS011;32313;48.722;9.362;2024-01-27T12:37:30;7.33;;;4.27;;
46589;SDS011;32313;48.722;9.362;2024-01-27T12:39:56;8.43;;;4.70;;
46589;SDS011;32313;48.722;9.362;2024-01-27T12:42:21;8.00;;;4.60;;
46589;SDS011;32313;48.722;9.362;2024-01-27T12:44:47;8.10;;;4.57;;
46589;SDS011;32313;48.722;9.362;2024-01-27T12:47:13;9.87;;;5.10;;
46589;SDS011;32313;48.722;9.362;2024-01-27T12:49:39;6.63;;;4.33;;
46589;SDS011;32313;48.722;9.362;2024-01-27T12:52:06;5.60;;;3.90;;
46589;SDS011;32313;48.722;9.362;2024-01-27T12:54:32;7.57;;;4.13;;
46589;SDS011;32313;48.722;9.362;2024-01-27T12:56:58;6.73;;;4.40;;
46589;SDS011;32313;48.722;9.362;2024-01-27T12:59:26;6.57;;;4.17;;
46589;SDS011;32313;48.722;9.362;2024-01-27T13:01:51;7.07;;;4.60;;
46589;SDS011;32313;48.722;9.362;2024-01-27T13:04:18;8.90;;;5.00;;
46589;SDS011;32313;48.722;9.362;2024-01-27T13:06:43;5.97;;;4.37;;
46589;SDS011;32313;48.722;9.362;2024-01-27T13:09:10;9.07;;;4.20;;
46589;SDS011;32313;48.722;9.362;2024-01-27T13:11:39;5.53;;;3.53;;
46589;SDS011;32313;48.722;9.362;2024-01-27T13:14:05;8.60;;;4.03;;
46589;SDS011;32313;48.722;9.362;2024-01-27T13:16:31;5.50;;;3.47;;
46589;SDS011;32313;48.722;9.362;2024-01-27T13:18:57;7.50;;;4.10;;
46589;SDS011;32313;48.722;9.362;2024-01-27T13:21:23;5.10;;;3.60;;
46589;SDS011;32313;48.722;9.362;2024-01-27T13:23:48;8.90;;;3.97;;
46589;SDS011;32313;48.722;9.362;2024-01-27T13:26:17;5.80;;;3.70;;
46589;SDS011;32313;48.722;9.362;2024-01-27T13:28:43;10.00;;;4.63;;
46589;SDS011;32313;48.722;9.362;2024-01-27T13:31:09;11.30;;;3.90;;
46589;SDS011;32313;48.722;9.362;2024-01-27T13:33:34;4.80;;;3.00;;
46589;SDS011;32313;48.722;9.362;2024-01-27T13:36:00;7.57;;;3.47;;
46589;SDS011;32313;48.722;9.362;2024-01-27T13:38:26;7.43;;;3.87;;
46589;SDS011;32313;48.722;9.362;2024-01-27T13:40:52;6.23;;;3.30;;
46589;SDS011;32313;48.722;9.362;2024-01-27T13:43:18;4.83;;;3.20;;
46589;SDS011;32313;48.722;9.362;2024-01-27T13:45:43;7.83;;;3.60;;
46589;SDS011;32313;48.722;9.362;2024-01-27T13:48:09;5.10;;;3.40;;
46589;SDS011;32313;48.722;9.362;2024-01-27T13:50:35;8.77;;;3.50;;
46589;SDS011;32313;48.722;9.362;2024-01-27T13:53:01;5.50;;;3.63;;
46589;SDS011;32313;48.722;9.362;2024-01-27T13:55:28;6.30;;;3.50;;
46589;SDS011;32313;48.722;9.362;2024-01-27T13:57:54;4.50;;;3.10;;
46589;SDS011;32313;48.722;9.362;2024-01-27T14:00:19;7.57;;;3.13;;
46589;SDS011;32313;48.722;9.362;2024-01-27T14:02:46;7.77;;;3.20;;
46589;SDS011;32313;48.722;9.362;2024-01-27T14:05:12;6.03;;;3.57;;
46589;SDS011;32313;48.722;9.362;2024-01-27T14:07:38;7.37;;;3.30;;
46589;SDS011;32313;48.722;9.362;2024-01-27T14:10:04;5.03;;;2.83;;
46589;SDS011;32313;48.722;9.362;2024-01-27T14:12:29;6.93;;;3.40;;
46589;SDS011;32313;48.722;9.362;2024-01-27T14:15:03;6.17;;;3.20;;
46589;SDS011;32313;48.722;9.362;2024-01-27T14:17:34;7.87;;;3.50;;
46589;SDS011;32313;48.722;9.362;2024-01-27T14:20:03;5.93;;;3.43;;
46589;SDS011;32313;48.722;9.362;2024-01-27T14:22:30;7.17;;;3.53;;
46589;SDS011;32313;48.722;9.362;2024-01-27T14:24:56;5.87;;;3.40;;
46589;SDS011;32313;48.722;9.362;2024-01-27T14:27:21;6.90;;;3.37;;